Time;durP1;ratioP1;P1;durP2;ratioP2;P2;SDS_P1;SDS_P2;PMS_P1;PMS_P2;Temp;Humidity;BMP_temperature;BMP_pressure;BME280_temperature;BME280_humidity;BME280_pressure;Samples;Min_cycle;Max_cycle;Signal;HPM_P1;HPM_P2
2024/01/29 00:02:18;;;;;;;5.32;2.70;;;;;;;18.51;38.24;102369.19;4967941;28;20034;-71
2024/01/29 00:04:44;;;;;;;4.95;2.75;;;;;;;18.60;38.04;102384.47;4969662;28;20038;-72
2024/01/29 00:07:09;;;;;;;6.20;2.60;;;;;;;18.44;38.06;102364.25;4970192;28;20035;-72
2024/01/29 00:09:34;;;;;;;4.93;2.50;;;;;;;18.46;37.82;102365.00;4969939;28;20035;-71
2024/01/29 00:12:00;;;;;;;5.77;2.67;;;;;;;18.45;37.81;102365.97;4970123;28;20423;-72
2024/01/29 00:14:25;;;;;;;4.45;2.58;;;;;;;18.56;37.78;102385.59;4969830;28;20265;-71
2024/01/29 00:16:50;;;;;;;5.35;2.92;;;;;;;18.46;37.99;102378.19;4970052;28;20085;-71
2024/01/29 00:19:16;;;;;;;4.72;2.53;;;;;;;18.38;37.71;102361.97;4969065;28;20118;-72
2024/01/29 00:21:41;;;;;;;5.78;3.03;;;;;;;18.34;37.67;102357.81;4969273;28;21300;-72
2024/01/29 00:24:06;;;;;;;5.55;3.00;;;;;;;18.45;37.76;102389.72;4968456;28;20038;-71
2024/01/29 00:26:31;;;;;;;5.35;2.60;;;;;;;18.47;37.74;102389.63;4968997;28;20058;-72
2024/01/29 00:28:57;;;;;;;5.15;2.75;;;;;;;18.43;37.66;102373.09;4969200;28;20497;-71
2024/01/29 00:31:25;;;;;;;6.38;3.10;;;;;;;18.30;37.37;102361.56;4968910;28;20034;-70
2024/01/29 00:33:51;;;;;;;5.15;2.80;;;;;;;18.31;37.34;102361.47;4966065;28;20059;-71
2024/01/29 00:36:17;;;;;;;5.50;2.70;;;;;;;18.28;37.36;102351.09;4967933;28;20233;-70
2024/01/29 00:38:43;;;;;;;5.20;2.90;;;;;;;18.36;37.24;102369.13;4969037;28;20476;-71
2024/01/29 00:41:08;;;;;;;4.40;2.65;;;;;;;18.33;37.43;102366.66;4969475;28;20034;-72
2024/01/29 00:43:33;;;;;;;4.63;2.70;;;;;;;18.29;37.22;102355.44;4969451;28;20042;-72
2024/01/29 00:45:58;;;;;;;5.40;2.73;;;;;;;18.24;37.39;102349.56;4969282;28;20368;-72
2024/01/29 00:48:25;;;;;;;5.53;3.28;;;;;;;18.36;37.40;102371.78;4968818;28;20268;-71
2024/01/29 00:50:51;;;;;;;4.60;2.80;;;;;;;18.33;37.26;102374.59;4968718;28;20121;-72
2024/01/29 00:53:16;;;;;;;4.78;2.70;;;;;;;18.30;37.37;102372.97;4968821;28;20460;-71
2024/01/29 00:55:46;;;;;;;5.20;3.10;;;;;;;18.32;36.99;102372.88;4968582;28;20065;-71
2024/01/29 00:58:15;;;;;;;4.53;2.70;;;;;;;18.18;37.23;102351.72;4968670;28;20034;-72
2024/01/29 01:00:41;;;;;;;4.45;2.50;;;;;;;18.28;37.24;102374.84;4968697;28;20476;-71
2024/01/29 01:03:07;;;;;;;5.45;2.67;;;;;;;18.21;37.29;102367.38;4965913;28;20454;-71
2024/01/29 01:05:33;;;;;;;4.93;2.72;;;;;;;18.15;37.08;102355.41;4968686;28;20475;-72
2024/01/29 01:08:00;;;;;;;5.13;3.05;;;;;;;18.12;37.06;102369.59;4968938;28;20046;-72
2024/01/29 01:10:25;;;;;;;4.68;2.88;;;;;;;18.24;37.12;102390.94;4968898;28;20077;-72
2024/01/29 01:12:51;;;;;;;5.15;3.08;;;;;;;18.10;36.87;102378.53;4968785;28;20035;-72
2024/01/29 01:15:16;;;;;;;4.30;2.80;;;;;;;18.20;37.02;102395.56;4968858;28;20039;-72
2024/01/29 01:17:41;;;;;;;4.78;2.90;;;;;;;18.20;37.07;102398.19;4968595;28;20746;-72
2024/01/29 01:20:07;;;;;;;5.60;3.47;;;;;;;18.17;36.87;102398.38;4968208;28;20078;-71
2024/01/29 01:22:32;;;;;;;4.68;2.70;;;;;;;18.09;36.73;102388.25;4968754;28;20085;-72
2024/01/29 01:24:57;;;;;;;4.70;2.88;;;;;;;18.15;36.76;102404.66;4968104;28;20480;-72
2024/01/29 01:27:23;;;;;;;5.93;2.85;;;;;;;18.13;36.84;102399.47;4967937;28;20033;-71
2024/01/29 01:29:48;;;;;;;5.32;3.05;;;;;;;18.12;36.67;102401.28;4967926;28;20045;-72
2024/01/29 01:32:13;;;;;;;5.28;2.90;;;;;;;18.06;36.86;102384.94;4968069;28;20050;-72
2024/01/29 01:34:39;;;;;;;5.70;3.05;;;;;;;18.11;36.78;102401.34;4968043;28;20430;-72
2024/01/29 01:37:04;;;;;;;5.63;2.90;;;;;;;18.09;36.90;102401.44;4968220;28;20047;-71
2024/01/29 01:39:29;;;;;;;5.00;2.97;;;;;;;18.00;36.62;102382.66;4968047;28;20051;-72
2024/01/29 01:41:55;;;;;;;5.30;2.90;;;;;;;18.12;36.62;102405.72;4968518;28;20085;-72
2024/01/29 01:44:20;;;;;;;6.00;3.00;;;;;;;18.11;36.50;102404.84;4967948;28;20062;-71
2024/01/29 01:46:46;;;;;;;5.10;3.20;;;;;;;18.12;36.82;102405.72;4967919;28;20042;-71
2024/01/29 01:49:11;;;;;;;5.45;2.90;;;;;;;18.07;36.77;102400.69;4968292;28;20026;-71
2024/01/29 01:51:37;;;;;;;4.57;2.60;;;;;;;18.07;36.57;102400.69;4967901;28;20035;-71
2024/01/29 01:54:03;;;;;;;4.85;2.85;;;;;;;18.10;36.66;102410.19;4968193;28;20407;-72
2024/01/29 01:56:30;;;;;;;5.30;3.20;;;;;;;18.07;36.80;102405.97;4967791;28;20031;-71
2024/01/29 01:58:59;;;;;;;5.00;2.80;;;;;;;18.09;36.69;102409.34;4967895;28;20034;-72
2024/01/29 02:01:25;;;;;;;5.25;3.10;;;;;;;18.09;36.79;102422.53;4968188;28;20035;-72
2024/01/29 02:03:51;;;;;;;4.78;2.75;;;;;;;17.98;36.61;102398.56;4966099;28;20043;-72
2024/01/29 02:06:16;;;;;;;4.68;2.70;;;;;;;18.03;36.54;102407.06;4967963;28;20041;-72
2024/01/29 02:08:41;;;;;;;5.85;2.80;;;;;;;18.03;36.72;102400.94;4967922;28;20117;-71
2024/01/29 02:11:07;;;;;;;5.82;2.75;;;;;;;17.89;36.60;102376.19;4967919;28;20081;-71
2024/01/29 02:13:33;;;;;;;5.40;2.63;;;;;;;18.01;36.61;102408.06;4967942;28;20403;-72
2024/01/29 02:15:59;;;;;;;5.00;2.97;;;;;;;18.00;36.55;102401.97;4967718;28;20030;-72
2024/01/29 02:18:24;;;;;;;5.40;2.88;;;;;;;17.89;36.75;102378.81;4967922;28;20038;-71
2024/01/29 02:20:49;;;;;;;5.05;3.10;;;;;;;18.00;36.68;102404.59;4967722;28;20035;-72
2024/01/29 02:23:15;;;;;;;4.25;2.70;;;;;;;17.92;36.50;102388.34;4967940;28;20053;-71
2024/01/29 02:25:40;;;;;;;5.55;2.78;;;;;;;17.88;36.54;102385.03;4967689;28;20490;-71
2024/01/29 02:28:05;;;;;;;4.65;2.60;;;;;;;17.97;36.58;102399.50;4967477;28;20118;-71
2024/01/29 02:30:31;;;;;;;5.30;2.90;;;;;;;17.93;36.56;102398.81;4965683;28;20400;-71
2024/01/29 02:32:56;;;;;;;4.95;2.97;;;;;;;17.80;36.36;102376.69;4967399;28;20035;-72
2024/01/29 02:35:22;;;;;;;4.38;2.67;;;;;;;17.93;36.59;102398.81;4965909;28;20041;-71
2024/01/29 02:37:47;;;;;;;5.95;3.10;;;;;;;17.83;36.24;102378.28;4967285;28;20186;-72
2024/01/29 02:40:13;;;;;;;4.25;2.65;;;;;;;17.95;36.41;102404.00;4967767;28;20513;-72
2024/01/29 02:42:40;;;;;;;4.80;2.53;;;;;;;17.92;36.20;102397.09;4967813;28;20043;-71
2024/01/29 02:45:05;;;;;;;5.82;3.08;;;;;;;17.91;36.43;102405.09;4967868;28;20034;-72
2024/01/29 02:47:31;;;;;;;5.47;3.00;;;;;;;17.80;36.45;102392.50;4966213;28;20125;-71
2024/01/29 02:49:56;;;;;;;5.20;2.75;;;;;;;17.76;36.53;102383.03;4967120;28;20027;-71
2024/01/29 02:52:21;;;;;;;5.05;2.65;;;;;;;17.88;36.19;102407.91;4967035;28;20023;-71
2024/01/29 02:54:47;;;;;;;5.18;2.53;;;;;;;17.81;36.57;102388.91;4967035;28;20034;-71
2024/01/29 02:57:12;;;;;;;5.00;2.90;;;;;;;17.87;36.42;102407.03;4967213;28;20042;-72
2024/01/29 02:59:38;;;;;;;4.57;2.70;;;;;;;17.85;36.53;102403.63;4968867;28;20451;-72
2024/01/29 03:02:03;;;;;;;4.85;3.08;;;;;;;17.81;36.37;102388.91;4969493;28;20107;-71
2024/01/29 03:04:29;;;;;;;5.47;3.03;;;;;;;17.85;36.28;102398.38;4970312;28;20035;-71
2024/01/29 03:06:54;;;;;;;4.43;2.42;;;;;;;17.82;36.71;102390.63;4971111;28;20122;-71
2024/01/29 03:09:19;;;;;;;4.88;2.92;;;;;;;17.74;36.61;102374.38;4971529;28;20384;-71
2024/01/29 03:11:45;;;;;;;4.90;2.47;;;;;;;17.87;36.50;102400.91;4971131;28;20138;-71
2024/01/29 03:14:10;;;;;;;5.22;2.60;;;;;;;17.83;36.58;102394.09;4971588;28;21114;-71
2024/01/29 03:16:36;;;;;;;5.68;2.97;;;;;;;17.77;36.87;102390.03;4970905;28;20368;-71
2024/01/29 03:19:01;;;;;;;5.80;2.85;;;;;;;17.75;37.01;102395.38;4971004;28;20043;-71
2024/01/29 03:21:30;;;;;;;4.82;2.50;;;;;;;17.68;36.82;102378.19;4970587;28;20559;-71
2024/01/29 03:23:56;;;;;;;4.00;2.58;;;;;;;17.81;37.07;102396.81;4970696;28;20034;-71
2024/01/29 03:26:22;;;;;;;4.75;2.65;;;;;;;17.66;36.81;102366.06;4970553;28;20029;-71
2024/01/29 03:28:48;;;;;;;4.68;2.70;;;;;;;17.75;36.80;102387.47;4970416;28;20045;-71
2024/01/29 03:31:13;;;;;;;4.95;2.72;;;;;;;17.78;37.07;102397.00;4970367;28;20043;-71
2024/01/29 03:33:38;;;;;;;5.30;3.05;;;;;;;17.70;37.12;102386.88;4970178;28;20062;-72
2024/01/29 03:36:05;;;;;;;4.93;2.78;;;;;;;17.69;37.38;102385.19;4970013;28;20069;-71
2024/01/29 03:38:32;;;;;;;6.10;3.60;;;;;;;17.74;37.11;102396.31;4970777;28;20031;-71
2024/01/29 03:40:58;;;;;;;4.38;2.28;;;;;;;17.70;37.26;102394.78;4970091;28;21241;-72
2024/01/29 03:43:23;;;;;;;6.28;2.58;;;;;;;17.71;37.68;102403.56;4970930;28;20039;-71
2024/01/29 03:45:48;;;;;;;4.65;2.80;;;;;;;17.75;37.51;102405.06;4970498;28;20118;-72
2024/01/29 03:48:13;;;;;;;4.82;2.50;;;;;;;17.61;37.70;102386.53;4970580;28;20431;-71
2024/01/29 03:50:39;;;;;;;4.78;2.85;;;;;;;17.61;37.83;102394.44;4970209;28;20137;-71
2024/01/29 03:53:04;;;;;;;5.32;3.08;;;;;;;17.76;37.51;102419.97;4970764;28;20511;-71
2024/01/29 03:55:29;;;;;;;4.55;2.63;;;;;;;17.62;37.75;102399.63;4970402;28;20058;-72
2024/01/29 03:57:54;;;;;;;5.07;2.97;;;;;;;17.68;37.56;102415.09;4970406;28;20030;-71
2024/01/29 04:00:22;;;;;;;5.03;2.87;;;;;;;17.68;37.95;102417.75;4970514;28;20062;-72
2024/01/29 04:02:49;;;;;;;4.68;2.83;;;;;;;17.58;37.66;102398.09;4967842;28;20279;-72
2024/01/29 04:05:15;;;;;;;4.68;2.42;;;;;;;17.58;37.63;102396.31;4969921;28;20527;-71
2024/01/29 04:07:40;;;;;;;4.80;2.60;;;;;;;17.69;37.57;102419.47;4970121;28;20035;-71
2024/01/29 04:10:06;;;;;;;5.10;2.97;;;;;;;17.66;37.54;102409.06;4967540;28;20045;-71
2024/01/29 04:12:31;;;;;;;4.85;2.83;;;;;;;17.72;37.47;102421.06;4969733;28;20042;-71
2024/01/29 04:14:56;;;;;;;5.00;2.65;;;;;;;17.68;37.46;102419.53;4969929;28;20043;-72
2024/01/29 04:17:22;;;;;;;4.80;2.65;;;;;;;17.57;37.54;102401.66;4969740;28;20484;-72
2024/01/29 04:19:47;;;;;;;4.55;2.47;;;;;;;17.67;37.42;102417.81;4969911;28;20046;-72
2024/01/29 04:22:12;;;;;;;5.65;2.80;;;;;;;17.64;37.25;102410.94;4969661;28;20034;-72
2024/01/29 04:24:38;;;;;;;5.75;2.92;;;;;;;17.67;37.10;102417.81;4969992;28;20035;-72
2024/01/29 04:27:03;;;;;;;4.68;2.55;;;;;;;17.66;37.33;102416.16;4969594;28;20483;-72
2024/01/29 04:29:28;;;;;;;5.97;3.33;;;;;;;17.47;36.90;102398.69;4969122;28;20041;-71
2024/01/29 04:31:54;;;;;;;4.20;2.42;;;;;;;17.55;37.17;102403.53;4969333;28;20041;-72
2024/01/29 04:34:19;;;;;;;4.65;2.83;;;;;;;17.53;37.22;102403.63;4969790;28;20060;-72
2024/01/29 04:36:45;;;;;;;5.07;2.67;;;;;;;17.48;36.82;102400.38;4968575;28;20558;-72
2024/01/29 04:39:10;;;;;;;4.85;2.38;;;;;;;17.49;36.93;102403.88;4969105;28;20305;-71
2024/01/29 04:41:36;;;;;;;4.47;2.50;;;;;;;17.63;37.16;102432.97;4969137;28;20428;-71
2024/01/29 04:44:01;;;;;;;4.25;2.58;;;;;;;17.54;36.83;102412.38;4967649;28;20126;-72
2024/01/29 04:46:26;;;;;;;4.70;2.67;;;;;;;17.59;36.95;102428.78;4968458;28;20034;-71
2024/01/29 04:48:52;;;;;;;4.75;2.70;;;;;;;17.55;37.12;102419.34;4968847;28;20065;-72
2024/01/29 04:51:18;;;;;;;5.35;2.55;;;;;;;17.50;36.86;102419.59;4968765;28;20066;-72
2024/01/29 04:53:43;;;;;;;6.13;2.72;;;;;;;17.59;36.96;102434.06;4968968;28;20388;-71
2024/01/29 04:56:09;;;;;;;4.40;2.30;;;;;;;17.41;37.16;102406.91;4969090;28;20037;-71
2024/01/29 04:58:35;;;;;;;4.90;2.67;;;;;;;17.57;36.96;102425.38;4968762;28;20720;-72
2024/01/29 05:01:01;;;;;;;5.30;2.58;;;;;;;17.59;36.83;102439.31;4968465;28;20593;-71
2024/01/29 05:03:26;;;;;;;5.25;2.88;;;;;;;17.23;36.59;102377.97;4966893;28;20038;-72
2024/01/29 05:05:52;;;;;;;4.43;2.38;;;;;;;17.38;36.74;102399.16;4968294;28;20400;-72
2024/01/29 05:08:18;;;;;;;4.18;2.47;;;;;;;17.46;36.66;102412.78;4968718;28;20044;-72
2024/01/29 05:10:44;;;;;;;4.68;2.75;;;;;;;17.54;36.83;102417.63;4968444;28;20039;-72
2024/01/29 05:13:10;;;;;;;5.18;2.40;;;;;;;17.53;36.94;102429.97;4968464;28;20034;-72
2024/01/29 05:15:35;;;;;;;4.38;2.45;;;;;;;17.50;36.70;102424.88;4968058;28;20033;-71
2024/01/29 05:18:01;;;;;;;3.80;2.35;;;;;;;17.54;36.69;102434.31;4968359;28;20029;-71
2024/01/29 05:20:26;;;;;;;5.65;2.50;;;;;;;17.46;36.68;102422.47;4967986;28;20034;-72
2024/01/29 05:22:51;;;;;;;4.35;2.42;;;;;;;17.51;36.63;102438.88;4968243;28;20463;-71
2024/01/29 05:25:17;;;;;;;4.73;2.50;;;;;;;17.50;36.81;102427.50;4968405;28;20031;-72
2024/01/29 05:27:42;;;;;;;4.00;2.30;;;;;;;17.37;36.51;102411.50;4968375;28;20749;-72
2024/01/29 05:30:08;;;;;;;3.78;2.33;;;;;;;17.52;36.87;102430.91;4968045;28;20066;-71
2024/01/29 05:32:33;;;;;;;4.50;2.35;;;;;;;17.43;36.50;102423.47;4968476;28;20387;-71
2024/01/29 05:35:00;;;;;;;4.70;2.50;;;;;;;17.40;36.73;102421.00;4968251;28;20046;-72
2024/01/29 05:37:26;;;;;;;4.43;2.50;;;;;;;17.46;36.40;102425.97;4967539;28;20491;-72
2024/01/29 05:39:51;;;;;;;4.03;2.30;;;;;;;17.48;36.73;102426.75;4968235;28;20038;-72
2024/01/29 05:42:16;;;;;;;4.63;2.20;;;;;;;17.36;36.81;102412.41;4968186;28;20113;-72
2024/01/29 05:44:42;;;;;;;3.75;2.05;;;;;;;17.35;36.99;102404.59;4968376;28;20038;-72
2024/01/29 05:47:07;;;;;;;4.72;2.33;;;;;;;17.36;37.14;102404.50;4967731;28;20073;-72
2024/01/29 05:49:32;;;;;;;3.90;2.00;;;;;;;17.40;37.46;102403.44;4967920;28;20459;-72
2024/01/29 05:51:58;;;;;;;3.78;2.03;;;;;;;17.47;37.50;102416.28;4967915;28;20034;-71
2024/01/29 05:54:23;;;;;;;4.38;2.00;;;;;;;17.65;37.83;102444.28;4968021;28;20026;-71
2024/01/29 05:56:50;;;;;;;4.20;1.80;;;;;;;17.66;37.87;102439.88;4968046;28;20395;-72
2024/01/29 05:59:15;;;;;;;3.63;1.95;;;;;;;17.58;37.87;102422.66;4968169;28;20368;-72
2024/01/29 06:01:42;;;;;;;4.32;2.40;;;;;;;17.78;37.54;102449.72;4967325;28;20506;-71
2024/01/29 06:04:07;;;;;;;4.50;1.92;;;;;;;17.68;37.79;102438.84;4965795;28;20031;-70
2024/01/29 06:06:32;;;;;;;3.58;1.90;;;;;;;17.82;37.97;102443.38;4968053;28;20038;-70
2024/01/29 06:08:57;;;;;;;3.47;1.90;;;;;;;17.75;37.99;102423.53;4967953;28;20041;-70
2024/01/29 06:11:23;;;;;;;3.33;1.63;;;;;;;17.87;38.17;102446.59;4967762;28;20041;-70
2024/01/29 06:13:48;;;;;;;3.83;2.05;;;;;;;17.77;38.04;102432.22;4967612;28;20039;-70
2024/01/29 06:16:23;;;;;;;4.28;2.03;;;;;;;17.95;38.21;102462.03;4965472;28;20049;-70
2024/01/29 06:18:49;;;;;;;4.03;2.00;;;;;;;17.93;38.14;102456.84;4965611;28;20531;-70
2024/01/29 06:21:14;;;;;;;3.67;1.80;;;;;;;17.94;38.59;102448.00;4967685;28;20035;-70
2024/01/29 06:23:40;;;;;;;4.15;1.98;;;;;;;17.96;39.16;102442.66;4967741;28;20034;-70
2024/01/29 06:26:06;;;;;;;3.92;1.63;;;;;;;17.99;38.57;102444.25;4967145;28;20039;-70
2024/01/29 06:28:31;;;;;;;3.53;2.00;;;;;;;17.92;39.01;102436.66;4966430;28;20035;-71
2024/01/29 06:30:56;;;;;;;3.85;2.05;;;;;;;18.05;39.01;102454.47;4966361;28;20399;-72
2024/01/29 06:33:22;;;;;;;3.35;1.80;;;;;;;18.06;39.01;102456.19;4967436;28;20023;-70
2024/01/29 06:35:47;;;;;;;3.60;1.60;;;;;;;18.07;39.19;102461.38;4970131;28;20034;-71
2024/01/29 06:38:12;;;;;;;4.18;1.83;;;;;;;18.09;39.21;102466.56;4967962;28;20392;-72
2024/01/29 06:40:37;;;;;;;3.87;1.73;;;;;;;18.03;39.40;102461.63;4969903;28;20031;-71
2024/01/29 06:43:03;;;;;;;3.75;2.00;;;;;;;18.08;39.49;102470.97;4968044;28;20338;-71
2024/01/29 06:45:30;;;;;;;3.95;1.75;;;;;;;18.08;39.47;102462.22;4969451;28;20492;-71
2024/01/29 06:47:56;;;;;;;4.38;1.70;;;;;;;18.04;39.53;102461.53;4969283;28;20202;-71
2024/01/29 06:50:22;;;;;;;3.47;1.85;;;;;;;18.02;39.46;102452.00;4969965;28;20050;-71
2024/01/29 06:52:47;;;;;;;3.90;1.77;;;;;;;18.14;39.76;102480.34;4970838;28;20388;-71
2024/01/29 06:55:12;;;;;;;4.10;1.98;;;;;;;18.11;39.72;102465.53;4969384;28;20034;-71
2024/01/29 06:57:38;;;;;;;4.10;1.80;;;;;;;18.06;39.95;102456.19;4970652;28;20035;-70
2024/01/29 07:00:03;;;;;;;3.50;1.60;;;;;;;18.06;39.77;102451.75;4970836;28;20498;-70
2024/01/29 07:02:29;;;;;;;4.13;1.75;;;;;;;18.07;40.01;102461.38;4968604;28;20038;-70
2024/01/29 07:04:55;;;;;;;4.13;2.00;;;;;;;18.20;39.96;102476.50;4970304;28;20034;-70
2024/01/29 07:07:20;;;;;;;3.95;1.90;;;;;;;18.23;40.21;102492.16;4968662;28;20066;-73
2024/01/29 07:09:45;;;;;;;5.18;2.17;;;;;;;18.20;40.23;102487.03;4969476;28;20359;-71
2024/01/29 07:12:14;;;;;;;3.75;1.83;;;;;;;18.18;40.25;102481.84;4969620;28;20472;-70
2024/01/29 07:14:40;;;;;;;4.20;2.10;;;;;;;18.24;40.19;102494.72;4969951;28;20035;-69
2024/01/29 07:17:05;;;;;;;4.07;2.30;;;;;;;18.09;40.10;102467.41;4969898;28;20483;-69
2024/01/29 07:19:33;;;;;;;3.78;1.80;;;;;;;18.12;40.26;102483.06;4969200;28;20056;-69
2024/01/29 07:22:04;;;;;;;4.63;2.20;;;;;;;18.24;40.83;102504.44;4968771;28;20033;-71
2024/01/29 07:24:29;;;;;;;4.90;2.00;;;;;;;18.23;40.79;102508.00;4969066;28;20047;-69
2024/01/29 07:26:54;;;;;;;4.35;2.10;;;;;;;18.18;41.18;102502.97;4968913;28;20038;-70
2024/01/29 07:29:20;;;;;;;3.80;1.77;;;;;;;18.15;40.88;102495.25;4969306;28;20379;-70
2024/01/29 07:31:46;;;;;;;4.70;2.10;;;;;;;18.24;41.27;102514.97;4969291;28;20022;-70
2024/01/29 07:34:11;;;;;;;3.72;1.98;;;;;;;18.23;41.29;102511.50;4969344;28;20035;-70
2024/01/29 07:36:40;;;;;;;4.15;1.90;;;;;;;18.31;41.20;102524.28;4969441;28;20051;-70
2024/01/29 07:39:05;;;;;;;3.80;2.05;;;;;;;18.18;41.25;102497.69;4970181;28;20081;-70
2024/01/29 07:41:31;;;;;;;3.90;1.90;;;;;;;18.19;41.47;102501.19;4968141;28;20039;-70
2024/01/29 07:43:56;;;;;;;3.20;1.90;;;;;;;18.17;41.58;102498.66;4969581;28;20027;-70
2024/01/29 07:46:22;;;;;;;3.65;2.00;;;;;;;18.25;41.33;102514.91;4970036;28;20038;-69
2024/01/29 07:48:47;;;;;;;4.15;2.00;;;;;;;18.22;41.26;102514.22;4969719;28;20538;-70
2024/01/29 07:51:12;;;;;;;4.40;2.00;;;;;;;18.28;41.43;102522.66;4969489;28;20039;-70
2024/01/29 07:53:37;;;;;;;3.90;1.73;;;;;;;18.28;41.71;102521.81;4970374;28;20283;-71
2024/01/29 07:56:03;;;;;;;4.20;1.92;;;;;;;18.17;41.79;102498.66;4966324;28;20046;-70
2024/01/29 07:58:28;;;;;;;3.85;1.85;;;;;;;18.28;41.68;102524.44;4969660;28;20038;-70
2024/01/29 08:00:54;;;;;;;4.45;2.00;;;;;;;18.31;41.88;102532.19;4969862;28;20069;-71
2024/01/29 08:03:19;;;;;;;4.13;2.17;;;;;;;18.29;41.89;102531.41;4968406;28;20027;-70
2024/01/29 08:05:44;;;;;;;5.25;2.20;;;;;;;18.24;42.20;102520.25;4969736;28;20054;-69
2024/01/29 08:08:10;;;;;;;5.00;2.00;;;;;;;18.24;42.51;102517.63;4970125;28;20521;-70
2024/01/29 08:10:35;;;;;;;4.90;1.83;;;;;;;18.19;42.64;102514.41;4969508;28;20058;-70
2024/01/29 08:13:01;;;;;;;3.80;2.00;;;;;;;18.28;42.80;102521.81;4969531;28;20031;-69
2024/01/29 08:15:29;;;;;;;4.32;2.10;;;;;;;18.18;42.77;102516.16;4969770;28;20071;-70
2024/01/29 08:17:55;;;;;;;3.80;1.80;;;;;;;18.20;42.76;102518.72;4969611;28;20145;-70
2024/01/29 08:20:23;;;;;;;4.85;2.08;;;;;;;18.19;42.58;102512.59;4969818;28;20073;-71
2024/01/29 08:22:48;;;;;;;4.50;2.05;;;;;;;18.29;42.75;102542.84;4969882;28;20042;-71
2024/01/29 08:25:14;;;;;;;6.97;2.70;;;;;;;18.16;43.51;102518.03;4969737;28;20042;-70
2024/01/29 08:27:39;;;;;;;4.75;2.25;;;;;;;18.18;43.30;102524.06;4968771;28;20484;-71
2024/01/29 08:30:05;;;;;;;4.57;2.60;;;;;;;18.29;43.31;102534.03;4969033;28;20031;-71
2024/01/29 08:32:30;;;;;;;6.82;2.70;;;;;;;18.18;43.47;102520.59;4969772;28;20404;-70
2024/01/29 08:34:55;;;;;;;7.87;2.87;;;;;;;18.28;43.24;102540.28;4969972;28;20383;-71
2024/01/29 08:37:21;;;;;;;5.20;2.70;;;;;;;18.28;43.11;102543.75;4967027;28;20343;-71
2024/01/29 08:39:46;;;;;;;4.30;2.35;;;;;;;18.33;43.76;102545.31;4967903;28;20284;-71
2024/01/29 08:42:11;;;;;;;5.38;2.28;;;;;;;18.35;43.83;102546.06;4967539;28;20037;-71
2024/01/29 08:44:37;;;;;;;5.50;2.10;;;;;;;18.36;43.47;102534.56;4967588;28;20046;-72
2024/01/29 08:47:02;;;;;;;4.50;2.22;;;;;;;18.34;43.16;102521.47;4967624;28;20038;-70
2024/01/29 08:49:28;;;;;;;7.25;2.42;;;;;;;18.50;42.81;102539.94;4967878;28;20035;-71
2024/01/29 08:51:53;;;;;;;4.43;2.30;;;;;;;18.46;42.54;102526.03;4967637;28;20034;-71
2024/01/29 08:54:18;;;;;;;4.45;2.38;;;;;;;18.39;42.65;102526.47;4967502;28;20638;-71
2024/01/29 08:56:43;;;;;;;4.28;2.03;;;;;;;18.46;41.94;102535.75;4967020;28;20031;-70
2024/01/29 08:59:09;;;;;;;5.03;2.22;;;;;;;18.46;42.29;102539.25;4966984;28;20033;-72
2024/01/29 09:01:34;;;;;;;5.37;2.27;;;;;;;18.27;42.31;102520.94;4967237;28;20054;-71
2024/01/29 09:04:00;;;;;;;4.57;2.63;;;;;;;18.40;42.45;102534.28;4959990;28;20744;-72
2024/01/29 09:06:25;;;;;;;6.03;2.53;;;;;;;18.30;42.11;102517.28;4964927;28;20031;-70
2024/01/29 09:08:50;;;;;;;5.03;2.38;;;;;;;18.30;42.10;102526.03;4966939;28;20027;-70
2024/01/29 09:11:16;;;;;;;5.78;2.53;;;;;;;18.39;41.94;102542.31;4967754;28;20035;-69
2024/01/29 09:13:41;;;;;;;4.70;2.22;;;;;;;18.27;42.29;102522.72;4968118;28;20060;-72
2024/01/29 09:16:08;;;;;;;5.72;2.35;;;;;;;18.30;42.02;102520.75;4968127;28;20031;-70
2024/01/29 09:18:33;;;;;;;6.28;2.40;;;;;;;18.38;42.12;102530.06;4968734;28;20038;-71
2024/01/29 09:20:59;;;;;;;4.43;2.30;;;;;;;18.28;42.10;102516.53;4967948;28;20395;-74
2024/01/29 09:23:24;;;;;;;4.83;2.03;;;;;;;18.42;41.98;102526.28;4966932;28;20070;-71
2024/01/29 09:25:50;;;;;;;4.38;2.05;;;;;;;18.38;42.18;102530.06;4965628;28;20796;-72
2024/01/29 09:28:15;;;;;;;5.15;2.60;;;;;;;18.43;41.95;102541.22;4966614;28;20477;-71
2024/01/29 09:30:40;;;;;;;4.50;2.30;;;;;;;18.40;41.70;102534.28;4965715;28;20066;-71
2024/01/29 09:33:06;;;;;;;5.30;2.35;;;;;;;18.40;41.89;102534.28;4966122;28;20030;-70
2024/01/29 09:35:31;;;;;;;5.10;2.15;;;;;;;18.29;41.86;102519.09;4965503;28;20502;-71
2024/01/29 09:37:57;;;;;;;4.03;1.90;;;;;;;18.27;41.55;102518.28;4966316;28;20054;-71
2024/01/29 09:40:22;;;;;;;5.88;2.25;;;;;;;18.31;41.63;102530.41;4967390;28;20494;-70
2024/01/29 09:42:49;;;;;;;4.20;2.05;;;;;;;18.29;41.35;102523.50;4967482;28;20026;-71
2024/01/29 09:45:24;;;;;;;4.82;2.33;;;;;;;18.34;41.54;102532.03;4967619;28;20030;-71
2024/01/29 09:47:51;;;;;;;5.15;2.50;;;;;;;18.30;41.20;102528.69;4969510;28;20035;-71
2024/01/29 09:50:17;;;;;;;4.90;2.65;;;;;;;18.46;41.53;102555.06;4972366;28;20105;-72
2024/01/29 09:52:45;;;;;;;5.18;2.45;;;;;;;18.46;41.13;102559.53;4972843;28;20479;-72
2024/01/29 09:55:11;;;;;;;4.90;2.22;;;;;;;18.47;41.30;102556.78;4978087;28;20035;-73
2024/01/29 09:57:37;;;;;;;4.63;2.22;;;;;;;18.50;41.12;102555.78;4965945;28;20034;-72
2024/01/29 10:00:04;;;;;;;5.45;2.67;;;;;;;18.40;40.69;102546.66;4966884;28;20033;-73
2024/01/29 10:02:34;;;;;;;4.95;2.33;;;;;;;18.40;40.61;102549.28;4965665;28;20523;-71
2024/01/29 10:04:59;;;;;;;4.40;2.15;;;;;;;18.52;40.94;102566.22;4966611;28;20027;-72
2024/01/29 10:07:25;;;;;;;6.38;2.35;;;;;;;18.51;41.13;102573.31;4967342;28;20039;-73
2024/01/29 10:09:53;;;;;;;5.03;2.45;;;;;;;18.48;40.60;102569.06;4966966;28;20031;-72
2024/01/29 10:12:22;;;;;;;4.55;2.40;;;;;;;18.42;40.54;102556.19;4967743;28;20081;-72
2024/01/29 10:14:48;;;;;;;5.10;2.20;;;;;;;18.49;40.57;102564.63;4967622;28;20027;-71
2024/01/29 10:17:13;;;;;;;4.82;2.17;;;;;;;18.45;40.39;102569.25;4967165;28;20403;-72
2024/01/29 10:19:38;;;;;;;4.72;2.30;;;;;;;18.43;40.36;102567.59;4966851;28;20031;-73
2024/01/29 10:22:10;;;;;;;5.35;2.13;;;;;;;18.44;40.44;102574.59;4967340;28;20070;-70
2024/01/29 10:24:36;;;;;;;4.20;2.30;;;;;;;18.36;40.58;102569.75;4967276;28;20026;-71
2024/01/29 10:27:06;;;;;;;3.55;2.05;;;;;;;18.35;40.38;102562.75;4967177;28;20081;-71
2024/01/29 10:29:31;;;;;;;4.22;2.20;;;;;;;18.44;40.39;102585.16;4966641;28;20394;-71
2024/01/29 10:31:59;;;;;;;4.20;2.40;;;;;;;18.36;40.53;102577.66;4966992;28;20152;-71
2024/01/29 10:34:24;;;;;;;3.90;2.15;;;;;;;18.42;40.50;102587.88;4966828;28;20268;-73
2024/01/29 10:36:51;;;;;;;4.32;2.47;;;;;;;18.31;40.51;102563.88;4966271;28;20058;-73
2024/01/29 10:39:21;;;;;;;5.28;2.38;;;;;;;18.41;40.44;102580.88;4966707;28;20026;-71
2024/01/29 10:41:51;;;;;;;4.90;2.40;;;;;;;18.39;40.35;102576.63;4966116;28;20034;-73
2024/01/29 10:44:19;;;;;;;4.50;2.50;;;;;;;18.28;40.37;102564.88;4965521;28;20054;-72
2024/01/29 10:46:46;;;;;;;4.03;2.13;;;;;;;18.38;40.54;102575.78;4966213;28;20035;-71
2024/01/29 10:49:12;;;;;;;4.88;1.90;;;;;;;18.37;40.37;102579.34;4964806;28;20062;-73
2024/01/29 10:51:40;;;;;;;4.97;2.20;;;;;;;18.39;40.04;102587.19;4965679;28;20457;-72
2024/01/29 10:54:07;;;;;;;5.82;2.33;;;;;;;18.35;40.08;102577.75;4966966;28;20034;-72
2024/01/29 10:56:32;;;;;;;4.40;2.20;;;;;;;18.31;40.04;102575.28;4965821;28;20023;-72
2024/01/29 10:58:59;;;;;;;4.93;2.42;;;;;;;18.38;40.28;102582.84;4964263;28;20043;-70
2024/01/29 11:01:25;;;;;;;3.55;1.95;;;;;;;18.34;40.15;102581.31;4965512;28;20035;-72
2024/01/29 11:03:51;;;;;;;4.88;2.25;;;;;;;18.37;40.08;102587.25;4963211;28;20037;-72
2024/01/29 11:06:35;;;;;;;4.72;2.22;;;;;;;18.37;40.33;102581.97;4960953;28;20042;-71
2024/01/29 11:09:11;;;;;;;4.32;2.30;;;;;;;18.40;40.68;102589.72;4965076;28;20038;-71
2024/01/29 11:11:39;;;;;;;4.93;2.38;;;;;;;18.36;40.62;102580.28;4965908;28;20078;-71
2024/01/29 11:14:06;;;;;;;6.85;2.60;;;;;;;18.33;40.72;102575.19;4966321;28;20038;-71
2024/01/29 11:16:32;;;;;;;5.72;2.67;;;;;;;18.37;41.02;102578.50;4966337;28;20042;-72
2024/01/29 11:18:58;;;;;;;5.13;2.40;;;;;;;18.38;41.04;102578.41;4966597;28;20472;-74